createdAt,value
2017-06-25T00:02:23.152Z,61.70
2017-06-25T00:04:50.580Z,61.20
2017-06-25T00:07:18.805Z,62.10
2017-06-25T00:09:46.246Z,61.30
2017-06-25T00:12:13.676Z,60.00
2017-06-25T00:14:41.871Z,60.90
2017-06-25T00:17:09.304Z,60.90
2017-06-25T00:19:37.581Z,62.80
2017-06-25T00:22:05.777Z,63.30
2017-06-25T00:24:33.220Z,63.20
2017-06-25T00:27:00.644Z,62.50
2017-06-25T00:29:28.080Z,62.60
2017-06-25T00:31:55.516Z,63.20
2017-06-25T00:34:22.948Z,63.00
2017-06-25T00:36:50.385Z,63.10
2017-06-25T00:39:18.588Z,63.00
2017-06-25T00:41:46.016Z,63.00
2017-06-25T00:44:14.229Z,63.60
2017-06-25T00:46:41.656Z,63.50
2017-06-25T00:49:09.852Z,63.20
2017-06-25T00:51:37.285Z,63.20
2017-06-25T00:54:21.149Z,63.60
2017-06-25T00:56:48.578Z,63.60
2017-06-25T00:59:16.785Z,64.50
2017-06-25T01:01:44.259Z,63.60
2017-06-25T01:04:11.701Z,63.40
2017-06-25T01:06:39.141Z,63.00
2017-06-25T01:09:07.328Z,63.70
2017-06-25T01:11:34.764Z,63.70
2017-06-25T01:14:02.973Z,64.10
2017-06-25T01:16:30.412Z,64.00
2017-06-25T01:18:57.845Z,65.50
2017-06-25T01:21:26.048Z,64.70
2017-06-25T01:23:53.476Z,63.90
2017-06-25T01:26:21.677Z,65.00
2017-06-25T01:28:49.104Z,65.00
2017-06-25T01:31:17.312Z,65.90
2017-06-25T01:33:44.760Z,65.10
2017-06-25T01:36:12.960Z,64.50
2017-06-25T01:38:40.388Z,64.50
2017-06-25T01:41:07.825Z,64.70
2017-06-25T01:43:36.034Z,64.50
2017-06-25T01:46:03.465Z,64.40
2017-06-25T01:48:31.661Z,65.60
2017-06-25T01:50:59.101Z,65.50
2017-06-25T01:53:27.293Z,65.10
2017-06-25T01:55:54.723Z,65.00
2017-06-25T01:58:22.924Z,65.70
2017-06-25T02:00:50.355Z,65.60
2017-06-25T02:03:18.553Z,66.30
2017-06-25T02:05:45.980Z,66.20
2017-06-25T02:08:14.179Z,65.80
2017-06-25T02:10:41.604Z,65.70
2017-06-25T02:13:09.799Z,66.50
2017-06-25T02:15:37.227Z,65.80
2017-06-25T02:18:04.659Z,66.20
2017-06-25T02:20:32.079Z,65.40
2017-06-25T02:22:59.520Z,65.50
2017-06-25T02:25:27.720Z,65.70
2017-06-25T02:27:55.146Z,65.70
2017-06-25T02:30:23.339Z,65.40
2017-06-25T02:32:50.772Z,65.30
2017-06-25T02:35:18.959Z,65.70
2017-06-25T02:37:46.508Z,65.50
2017-06-25T02:40:14.703Z,66.70
2017-06-25T02:42:42.135Z,66.00
2017-06-25T02:45:10.319Z,66.00
2017-06-25T02:47:38.516Z,66.00
2017-06-25T02:50:05.944Z,66.00
2017-06-25T02:52:33.378Z,66.60
2017-06-25T02:55:00.791Z,65.70
2017-06-25T02:57:28.220Z,65.80
2017-06-25T02:59:56.411Z,66.10
2017-06-25T03:02:23.836Z,66.10
2017-06-25T03:04:52.028Z,67.10
2017-06-25T03:07:19.455Z,67.20
2017-06-25T03:09:49.675Z,67.50
2017-06-25T03:12:17.104Z,67.60
2017-06-25T03:14:44.530Z,67.80
2017-06-25T03:17:11.961Z,67.30
2017-06-25T03:19:40.168Z,69.20
2017-06-25T03:22:07.596Z,68.80
2017-06-25T03:24:35.023Z,69.10
2017-06-25T03:27:02.444Z,68.90
2017-06-25T03:29:29.879Z,69.30
2017-06-25T03:31:57.299Z,70.20
2017-06-25T03:34:24.748Z,69.70
2017-06-25T03:36:52.157Z,69.50
2017-06-25T03:39:19.583Z,69.80
2017-06-25T03:41:47.034Z,69.80
2017-06-25T03:44:14.439Z,69.40
2017-06-25T03:46:41.873Z,69.90
2017-06-25T03:49:10.064Z,69.40
2017-06-25T03:51:37.484Z,69.40
2017-06-25T03:54:05.698Z,69.70
2017-06-25T03:56:33.128Z,70.20
2017-06-25T03:59:01.319Z,70.10
2017-06-25T04:01:28.753Z,70.10
2017-06-25T04:03:56.939Z,70.50
2017-06-25T04:06:24.375Z,70.40
2017-06-25T04:08:51.799Z,70.70
2017-06-25T04:11:19.238Z,70.90
2017-06-25T04:13:46.681Z,70.50
2017-06-25T04:16:14.863Z,70.10
2017-06-25T04:18:42.299Z,70.10
2017-06-25T04:21:09.739Z,69.80
2017-06-25T04:23:37.927Z,69.00
2017-06-25T04:26:06.131Z,69.40
2017-06-25T04:28:33.552Z,69.40
2017-06-25T04:31:01.750Z,69.20
2017-06-25T04:33:29.167Z,69.10
2017-06-25T04:35:56.595Z,68.50
2017-06-25T04:38:24.019Z,68.30
2017-06-25T04:40:51.447Z,68.40
2017-06-25T04:43:19.648Z,68.70
2017-06-25T04:45:47.075Z,68.60
2017-06-25T04:48:15.263Z,68.50
2017-06-25T04:50:43.476Z,68.70
2017-06-25T04:53:10.920Z,68.70
2017-06-25T04:55:38.344Z,68.10
2017-06-25T04:58:06.548Z,67.20
2017-06-25T05:00:33.980Z,67.20
2017-06-25T05:03:02.178Z,66.40
2017-06-25T05:05:29.600Z,66.40
2017-06-25T05:07:57.798Z,65.90
2017-06-25T05:10:25.216Z,65.90
2017-06-25T05:12:52.652Z,66.10
2017-06-25T05:15:20.075Z,66.90
2017-06-25T05:17:47.498Z,64.90
2017-06-25T05:20:14.920Z,64.70
2017-06-25T05:22:42.362Z,64.00
2017-06-25T05:25:09.776Z,63.30
2017-06-25T05:27:37.988Z,61.50
2017-06-25T05:30:05.407Z,61.40
2017-06-25T05:32:33.603Z,60.30
2017-06-25T05:35:01.031Z,60.20
2017-06-25T05:37:29.239Z,59.90
2017-06-25T05:39:56.665Z,59.30
2017-06-25T05:42:24.867Z,58.80
2017-06-25T05:44:52.288Z,58.50
2017-06-25T05:47:19.711Z,58.50
2017-06-25T05:49:47.142Z,57.80
2017-06-25T05:52:14.567Z,59.20
2017-06-25T05:54:42.772Z,57.70
2017-06-25T05:57:10.192Z,57.70
2017-06-25T05:59:37.619Z,59.10
2017-06-25T06:02:05.039Z,57.10
2017-06-25T06:04:32.466Z,57.30
2017-06-25T06:07:00.662Z,57.20
2017-06-25T06:09:28.091Z,57.20
2017-06-25T06:11:56.283Z,55.80
2017-06-25T06:14:23.724Z,56.30
2017-06-25T06:16:51.990Z,56.50
2017-06-25T06:19:19.418Z,56.50
2017-06-25T06:21:46.848Z,55.60
2017-06-25T06:24:14.275Z,53.90
2017-06-25T06:26:42.466Z,53.20
2017-06-25T06:29:09.900Z,53.10
2017-06-25T06:31:38.098Z,52.30
2017-06-25T06:34:05.521Z,51.70
2017-06-25T06:36:32.946Z,51.50
2017-06-25T06:39:00.393Z,51.20
2017-06-25T06:41:27.816Z,51.10
2017-06-25T06:43:55.234Z,50.90
2017-06-25T06:46:22.671Z,51.30
2017-06-25T06:48:50.101Z,50.70
2017-06-25T06:51:17.526Z,50.00
2017-06-25T06:53:45.711Z,49.30
2017-06-25T06:56:13.970Z,49.60
2017-06-25T06:58:41.392Z,49.60
2017-06-25T07:01:08.825Z,48.90
2017-06-25T07:03:36.247Z,48.50
2017-06-25T07:06:04.451Z,47.60
2017-06-25T07:08:31.872Z,47.50
2017-06-25T07:10:59.331Z,48.10
2017-06-25T07:13:27.572Z,49.10
2017-06-25T07:15:55.012Z,48.40
2017-06-25T07:18:22.431Z,48.60
2017-06-25T07:20:49.867Z,48.70
2017-06-25T07:23:17.332Z,48.90
2017-06-25T07:25:44.786Z,49.10
2017-06-25T07:28:12.217Z,48.90
2017-06-25T07:30:39.643Z,48.80
2017-06-25T07:33:07.067Z,49.40
2017-06-25T07:35:35.243Z,49.50
2017-06-25T07:38:02.671Z,49.50
2017-06-25T07:40:30.101Z,48.60
2017-06-25T07:42:57.524Z,50.00
2017-06-25T07:45:24.943Z,48.40
2017-06-25T07:47:52.371Z,47.90
2017-06-25T07:50:19.792Z,46.80
2017-06-25T07:52:47.231Z,45.20
2017-06-25T07:55:14.643Z,45.00
2017-06-25T07:57:42.077Z,44.70
2017-06-25T08:00:09.505Z,43.10
2017-06-25T08:02:36.932Z,43.50
2017-06-25T08:05:04.359Z,41.50
2017-06-25T08:07:31.774Z,42.40
2017-06-25T08:09:59.976Z,43.10
2017-06-25T08:12:27.409Z,43.10
2017-06-25T08:14:54.835Z,44.20
2017-06-25T08:17:22.267Z,42.70
2017-06-25T08:19:49.687Z,44.40
2017-06-25T08:22:17.123Z,42.90
2017-06-25T08:24:44.543Z,43.80
2017-06-25T08:27:11.984Z,43.90
2017-06-25T08:29:39.415Z,43.50
2017-06-25T08:32:06.841Z,44.70
2017-06-25T08:34:34.273Z,45.60
2017-06-25T08:37:01.704Z,44.10
2017-06-25T08:39:29.138Z,43.80
2017-06-25T08:41:57.328Z,45.00
2017-06-25T08:44:24.759Z,45.10
2017-06-25T08:46:52.184Z,44.20
2017-06-25T08:49:19.616Z,43.80
2017-06-25T08:51:47.043Z,44.20
2017-06-25T08:54:14.474Z,43.80
2017-06-25T08:56:42.667Z,45.90
2017-06-25T08:59:10.120Z,46.00
2017-06-25T09:01:37.531Z,43.70
2017-06-25T09:04:05.024Z,44.30
2017-06-25T09:06:33.212Z,45.30
2017-06-25T09:09:01.404Z,43.90
2017-06-25T09:11:28.823Z,43.80
2017-06-25T09:13:56.261Z,43.20
2017-06-25T09:16:23.826Z,43.80
2017-06-25T09:18:52.014Z,42.50
2017-06-25T09:21:19.475Z,42.40
2017-06-25T09:23:47.700Z,43.50
2017-06-25T09:26:15.122Z,42.80
2017-06-25T09:28:43.312Z,42.90
2017-06-25T09:31:10.767Z,42.80
2017-06-25T09:33:38.208Z,42.70
2017-06-25T09:36:06.415Z,39.00
2017-06-25T09:38:33.830Z,39.00
2017-06-25T09:41:01.264Z,40.40
2017-06-25T09:43:28.696Z,41.40
2017-06-25T09:45:56.139Z,40.50
2017-06-25T09:48:23.566Z,42.70
2017-06-25T09:50:51.760Z,39.30
2017-06-25T09:53:19.179Z,39.20
2017-06-25T09:55:46.612Z,39.90
2017-06-25T09:58:14.045Z,39.30
2017-06-25T10:00:41.479Z,40.20
2017-06-25T10:03:08.903Z,40.90
2017-06-25T10:05:36.368Z,42.10
2017-06-25T10:08:03.795Z,39.30
2017-06-25T10:10:31.246Z,40.20
2017-06-25T10:12:58.686Z,41.10
2017-06-25T10:15:26.108Z,40.30
2017-06-25T10:17:53.540Z,40.50
2017-06-25T10:20:21.040Z,40.20
2017-06-25T10:22:48.477Z,40.10
2017-06-25T10:25:15.944Z,42.00
2017-06-25T10:27:43.373Z,43.30
2017-06-25T10:30:10.807Z,42.80
2017-06-25T10:32:38.239Z,42.30
2017-06-25T10:35:05.676Z,42.70
2017-06-25T10:37:33.099Z,44.00
2017-06-25T10:40:00.542Z,44.90
2017-06-25T10:42:27.967Z,43.30
2017-06-25T10:44:55.394Z,43.50
2017-06-25T10:47:22.828Z,43.50
2017-06-25T10:49:50.275Z,42.90
2017-06-25T10:52:17.704Z,44.70
2017-06-25T10:54:45.132Z,43.90
2017-06-25T10:57:12.569Z,41.70
2017-06-25T10:59:40.761Z,43.70
2017-06-25T11:02:08.186Z,43.80
2017-06-25T11:04:35.608Z,41.40
2017-06-25T11:07:03.049Z,42.00
2017-06-25T11:09:30.478Z,41.50
2017-06-25T11:11:57.915Z,39.30
2017-06-25T11:14:25.349Z,39.80
2017-06-25T11:16:53.544Z,38.50
2017-06-25T11:19:21.021Z,38.50
2017-06-25T11:21:48.455Z,37.80
2017-06-25T11:24:15.893Z,37.60
2017-06-25T11:26:43.321Z,38.90
2017-06-25T11:29:10.755Z,37.70
2017-06-25T11:31:38.180Z,37.50
2017-06-25T11:34:05.613Z,40.10
2017-06-25T11:36:33.041Z,37.90
2017-06-25T11:39:00.481Z,39.40
2017-06-25T11:41:27.904Z,39.50
2017-06-25T11:43:55.336Z,40.60
2017-06-25T11:46:22.755Z,40.10
2017-06-25T11:48:50.183Z,41.20
2017-06-25T11:51:18.384Z,41.90
2017-06-25T11:53:45.820Z,41.90
2017-06-25T11:56:13.247Z,42.00
2017-06-25T11:58:40.682Z,44.10
2017-06-25T12:01:08.107Z,43.60
2017-06-25T12:03:35.548Z,44.00
2017-06-25T12:06:03.740Z,45.10
2017-06-25T12:08:31.179Z,45.10
2017-06-25T12:10:59.374Z,45.20
2017-06-25T12:13:26.804Z,45.20
2017-06-25T12:15:55.002Z,44.80
2017-06-25T12:18:22.443Z,44.80
2017-06-25T12:20:50.633Z,43.50
2017-06-25T12:23:18.060Z,43.30
2017-06-25T12:25:45.488Z,43.90
2017-06-25T12:28:12.921Z,43.80
2017-06-25T12:30:40.359Z,42.50
2017-06-25T12:33:07.779Z,44.50
2017-06-25T12:35:35.211Z,45.70
2017-06-25T12:38:02.647Z,44.80
2017-06-25T12:40:30.075Z,45.30
2017-06-25T12:42:57.517Z,46.90
2017-06-25T12:45:24.969Z,42.70
2017-06-25T12:47:52.408Z,43.70
2017-06-25T12:50:19.841Z,44.50
2017-06-25T12:52:47.260Z,44.00
2017-06-25T12:55:14.695Z,44.80
2017-06-25T12:57:42.111Z,44.20
2017-06-25T13:00:09.564Z,44.60
2017-06-25T13:02:36.993Z,46.30
2017-06-25T13:05:04.420Z,44.30
2017-06-25T13:07:32.695Z,45.70
2017-06-25T13:10:00.121Z,45.20
2017-06-25T13:12:27.602Z,43.80
2017-06-25T13:14:55.032Z,43.90
2017-06-25T13:17:22.483Z,45.00
2017-06-25T13:19:49.975Z,45.50
2017-06-25T13:22:17.448Z,44.90
2017-06-25T13:24:44.871Z,45.00
2017-06-25T13:27:12.300Z,45.50
2017-06-25T13:29:39.740Z,46.00
2017-06-25T13:32:07.172Z,45.70
2017-06-25T13:34:34.600Z,46.10
2017-06-25T13:37:02.026Z,45.70
2017-06-25T13:39:29.447Z,45.50
2017-06-25T13:41:57.657Z,44.90
2017-06-25T13:44:26.187Z,44.80
2017-06-25T13:46:53.656Z,45.40
2017-06-25T13:49:21.075Z,46.10
2017-06-25T13:51:48.516Z,46.00
2017-06-25T13:54:15.935Z,46.50
2017-06-25T13:56:43.388Z,45.90
2017-06-25T13:59:11.643Z,45.80
2017-06-25T14:01:39.067Z,45.90
2017-06-25T14:04:06.512Z,46.10
2017-06-25T14:06:33.938Z,45.30
2017-06-25T14:09:01.361Z,46.20
2017-06-25T14:11:28.835Z,46.60
2017-06-25T14:13:57.028Z,46.40
2017-06-25T14:16:24.457Z,46.40
2017-06-25T14:18:51.898Z,46.80
2017-06-25T14:21:19.333Z,47.30
2017-06-25T14:23:46.863Z,46.60
2017-06-25T14:26:14.287Z,47.10
2017-06-25T14:28:42.491Z,46.30
2017-06-25T14:31:09.915Z,46.80
2017-06-25T14:33:37.343Z,45.40
2017-06-25T14:36:04.831Z,47.00
2017-06-25T14:38:32.268Z,48.20
2017-06-25T14:40:59.699Z,47.90
2017-06-25T14:43:27.128Z,47.50
2017-06-25T14:45:54.569Z,47.70
2017-06-25T14:48:21.983Z,47.10
2017-06-25T14:50:49.408Z,47.90
2017-06-25T14:53:16.851Z,48.50
2017-06-25T14:55:44.276Z,47.80
2017-06-25T14:58:11.707Z,46.40
2017-06-25T15:00:39.135Z,48.30
2017-06-25T15:03:06.560Z,49.00
2017-06-25T15:05:33.989Z,48.70
2017-06-25T15:08:01.407Z,48.10
2017-06-25T15:10:28.844Z,48.70
2017-06-25T15:12:56.268Z,48.80
2017-06-25T15:15:23.705Z,49.20
2017-06-25T15:17:51.145Z,49.80
2017-06-25T15:20:18.655Z,48.90
2017-06-25T15:22:46.843Z,47.70
2017-06-25T15:25:14.284Z,47.60
2017-06-25T15:27:42.759Z,48.50
2017-06-25T15:30:10.188Z,48.20
2017-06-25T15:32:37.607Z,48.60
2017-06-25T15:35:05.060Z,47.20
2017-06-25T15:37:32.489Z,48.20
2017-06-25T15:39:59.926Z,47.90
2017-06-25T15:42:27.343Z,49.10
2017-06-25T15:44:54.779Z,48.20
2017-06-25T15:47:22.199Z,49.00
2017-06-25T15:49:49.648Z,49.60
2017-06-25T15:52:17.081Z,49.40
2017-06-25T15:54:44.533Z,47.90
2017-06-25T15:57:11.948Z,48.30
2017-06-25T15:59:40.149Z,49.20
2017-06-25T16:02:07.575Z,49.20
2017-06-25T16:04:42.865Z,48.50
2017-06-25T16:09:46.443Z,48.30
2017-06-25T16:12:13.875Z,49.20
2017-06-25T16:14:41.301Z,50.10
2017-06-25T16:17:08.739Z,49.70
2017-06-25T16:19:36.167Z,50.00
2017-06-25T16:22:03.600Z,50.40
2017-06-25T16:24:31.035Z,50.40
2017-06-25T16:26:58.457Z,50.30
2017-06-25T16:29:25.880Z,50.00
2017-06-25T16:31:53.303Z,50.00
2017-06-25T16:34:20.736Z,50.50
2017-06-25T16:36:48.164Z,49.50
2017-06-25T16:39:15.595Z,50.60
2017-06-25T16:41:43.028Z,50.10
2017-06-25T16:44:10.455Z,49.60
2017-06-25T16:46:37.907Z,49.90
2017-06-25T16:49:05.337Z,49.90
2017-06-25T16:51:33.532Z,48.90
2017-06-25T16:54:00.960Z,48.80
2017-06-25T16:56:28.379Z,49.30
2017-06-25T16:58:55.808Z,49.60
2017-06-25T17:01:23.236Z,47.40
2017-06-25T17:03:51.428Z,49.20
2017-06-25T17:06:18.853Z,49.10
2017-06-25T17:08:46.284Z,48.80
2017-06-25T17:11:13.713Z,48.80
2017-06-25T17:13:41.147Z,47.50
2017-06-25T17:16:08.572Z,48.00
2017-06-25T17:18:35.999Z,48.40
2017-06-25T17:21:03.442Z,49.60
2017-06-25T17:23:30.870Z,49.30
2017-06-25T17:25:59.056Z,49.60
2017-06-25T17:28:26.487Z,49.60
2017-06-25T17:30:53.918Z,47.00
2017-06-25T17:33:21.350Z,47.30
2017-06-25T17:35:48.774Z,48.50
2017-06-25T17:38:16.216Z,47.90
2017-06-25T17:40:43.636Z,47.90
2017-06-25T17:43:11.087Z,49.00
2017-06-25T17:45:38.519Z,49.60
2017-06-25T17:48:05.939Z,48.00
2017-06-25T17:50:34.143Z,48.10
2017-06-25T17:53:01.664Z,48.00
2017-06-25T17:55:29.661Z,47.40
2017-06-25T17:57:57.112Z,46.40
2017-06-25T18:00:24.556Z,47.80
2017-06-25T18:02:51.955Z,47.60
2017-06-25T18:05:19.389Z,47.60
2017-06-25T18:07:46.900Z,48.50
2017-06-25T18:10:14.331Z,47.60
2017-06-25T18:12:41.747Z,49.30
2017-06-25T18:15:09.171Z,49.40
2017-06-25T18:17:36.607Z,49.40
2017-06-25T18:20:04.115Z,49.00
2017-06-25T18:22:31.524Z,49.50
2017-06-25T18:24:58.960Z,47.90
2017-06-25T18:27:26.386Z,49.20
2017-06-25T18:29:54.575Z,49.20
2017-06-25T18:32:22.004Z,49.10
2017-06-25T18:34:49.444Z,49.20
2017-06-25T18:37:16.864Z,49.30
2017-06-25T18:39:44.288Z,49.10
2017-06-25T18:42:11.715Z,49.60
2017-06-25T18:44:39.135Z,49.50
2017-06-25T18:47:06.562Z,49.80
2017-06-25T18:49:34.801Z,50.00
2017-06-25T18:52:02.234Z,50.10
2017-06-25T18:54:29.652Z,50.30
2017-06-25T18:56:57.101Z,50.60
2017-06-25T18:59:25.299Z,50.80
2017-06-25T19:01:53.575Z,50.80
2017-06-25T19:04:20.983Z,50.40
2017-06-25T19:06:48.412Z,49.80
2017-06-25T19:09:15.836Z,50.00
2017-06-25T19:11:43.267Z,50.10
2017-06-25T19:14:10.687Z,50.50
2017-06-25T19:16:38.116Z,51.20
2017-06-25T19:19:05.536Z,50.80
2017-06-25T19:21:32.976Z,51.40
2017-06-25T19:24:00.411Z,51.70
2017-06-25T19:26:27.934Z,52.10
2017-06-25T19:28:55.360Z,50.40
2017-06-25T19:31:22.807Z,51.70
2017-06-25T19:33:50.235Z,51.80
2017-06-25T19:36:17.672Z,50.80
2017-06-25T19:38:45.100Z,51.40
2017-06-25T19:41:13.287Z,52.30
2017-06-25T19:43:40.716Z,52.20
2017-06-25T19:46:08.172Z,52.40
2017-06-25T19:48:35.603Z,52.60
2017-06-25T19:51:03.029Z,52.00
2017-06-25T19:53:30.452Z,51.70
2017-06-25T19:55:58.642Z,52.10
2017-06-25T19:58:26.076Z,52.10
2017-06-25T20:00:53.500Z,52.00
2017-06-25T20:03:20.935Z,52.20
2017-06-25T20:05:48.359Z,52.60
2017-06-25T20:08:16.561Z,52.80
2017-06-25T20:10:43.979Z,52.60
2017-06-25T20:13:11.408Z,53.40
2017-06-25T20:15:38.834Z,52.80
2017-06-25T20:18:06.395Z,52.90
2017-06-25T20:20:33.820Z,53.20
2017-06-25T20:23:01.247Z,53.60
2017-06-25T20:25:28.680Z,53.70
2017-06-25T20:27:56.107Z,54.10
2017-06-25T20:30:23.532Z,53.70
2017-06-25T20:32:51.727Z,53.50
2017-06-25T20:35:19.152Z,53.90
2017-06-25T20:37:46.573Z,54.70
2017-06-25T20:40:13.999Z,56.30
2017-06-25T20:42:41.420Z,55.40
2017-06-25T20:45:08.855Z,54.90
2017-06-25T20:47:36.275Z,55.40
2017-06-25T20:50:03.703Z,55.70
2017-06-25T20:52:31.905Z,55.90
2017-06-25T20:54:59.332Z,55.90
2017-06-25T20:57:27.527Z,57.00
2017-06-25T20:59:54.956Z,56.70
2017-06-25T21:02:22.390Z,56.20
2017-06-25T21:04:49.830Z,56.50
2017-06-25T21:07:17.247Z,56.50
2017-06-25T21:09:44.687Z,56.30
2017-06-25T21:12:12.107Z,56.40
2017-06-25T21:14:39.543Z,57.00
2017-06-25T21:17:06.971Z,56.20
2017-06-25T21:19:35.187Z,56.60
2017-06-25T21:22:03.736Z,56.50
2017-06-25T21:24:31.920Z,57.50
2017-06-25T21:26:59.347Z,57.50
2017-06-25T21:29:27.535Z,58.20
2017-06-25T21:31:54.967Z,58.40
2017-06-25T21:34:22.392Z,58.00
2017-06-25T21:36:49.890Z,56.70
2017-06-25T21:39:17.315Z,57.50
2017-06-25T21:41:44.765Z,57.80
2017-06-25T21:44:12.963Z,58.10
2017-06-25T21:46:40.395Z,58.20
2017-06-25T21:49:07.819Z,57.30
2017-06-25T21:51:35.260Z,57.50
2017-06-25T21:54:03.437Z,58.40
2017-06-25T21:56:31.641Z,59.10
2017-06-25T21:58:59.063Z,59.10
2017-06-25T22:01:27.263Z,58.20
2017-06-25T22:03:54.697Z,57.60
2017-06-25T22:06:22.901Z,59.00
2017-06-25T22:08:50.359Z,58.40
2017-06-25T22:11:17.772Z,58.30
2017-06-25T22:13:45.195Z,58.10
2017-06-25T22:16:12.643Z,58.20
2017-06-25T22:18:40.067Z,58.90
2017-06-25T22:21:07.494Z,58.50
2017-06-25T22:23:34.920Z,58.70
2017-06-25T22:26:02.343Z,58.50
2017-06-25T22:28:29.777Z,58.20
2017-06-25T22:30:57.967Z,59.00
2017-06-25T22:33:25.395Z,59.00
2017-06-25T22:35:52.815Z,58.10
2017-06-25T22:38:20.244Z,58.20
2017-06-25T22:40:47.672Z,58.00
2017-06-25T22:43:15.866Z,58.20
2017-06-25T22:45:43.296Z,58.20
2017-06-25T22:48:10.724Z,58.00
2017-06-25T22:50:38.159Z,58.30
2017-06-25T22:53:05.583Z,58.10
2017-06-25T22:55:33.770Z,59.70
2017-06-25T22:58:01.208Z,59.70
2017-06-25T23:00:29.404Z,60.00
2017-06-25T23:02:56.836Z,60.00
2017-06-25T23:05:25.027Z,60.10
2017-06-25T23:07:52.476Z,59.40
2017-06-25T23:10:20.663Z,59.60
2017-06-25T23:12:48.087Z,59.60
2017-06-25T23:15:15.513Z,59.70
2017-06-25T23:17:42.931Z,60.10
2017-06-25T23:20:10.367Z,61.00
2017-06-25T23:22:38.554Z,61.20
2017-06-25T23:25:06.751Z,60.30
2017-06-25T23:27:34.176Z,60.20
2017-06-25T23:30:02.368Z,59.50
2017-06-25T23:32:29.792Z,59.50
2017-06-25T23:34:57.222Z,60.40
2017-06-25T23:37:24.639Z,60.00
2017-06-25T23:39:52.070Z,58.80
2017-06-25T23:42:20.250Z,58.30
2017-06-25T23:44:48.451Z,58.10
2017-06-25T23:47:15.871Z,58.10
2017-06-25T23:49:44.068Z,58.20
2017-06-25T23:52:11.489Z,58.20
2017-06-25T23:54:38.915Z,57.90
2017-06-25T23:57:06.339Z,58.00
2017-06-25T23:59:33.766Z,57.90
